createdAt,value
2019-05-01T00:01:36.170Z,98218.50
2019-05-01T00:04:30.530Z,98221.42
2019-05-01T00:07:08.250Z,98217.34
2019-05-01T00:09:41.495Z,98212.70
2019-05-01T00:12:13.488Z,98213.10
2019-05-01T00:14:45.427Z,98212.22
2019-05-01T00:17:19.183Z,98208.49
2019-05-01T00:19:51.123Z,98208.65
2019-05-01T00:22:23.089Z,98203.99
2019-05-01T00:24:55.034Z,98200.45
2019-05-01T00:27:27.131Z,98201.55
2019-05-01T00:29:59.070Z,98202.19
2019-05-01T00:32:31.039Z,98198.48
2019-05-01T00:35:03.147Z,98198.08
2019-05-01T00:37:35.097Z,98190.62
2019-05-01T00:40:07.159Z,98191.26
2019-05-01T00:42:39.125Z,98194.17
2019-05-01T00:45:11.105Z,98205.19
2019-05-01T00:47:43.063Z,98203.28
2019-05-01T00:50:15.045Z,98197.99
2019-05-01T00:52:46.995Z,98195.94
2019-05-01T00:55:37.678Z,98192.05
2019-05-01T00:58:16.858Z,98192.99
2019-05-01T01:01:02.707Z,98197.04
2019-05-01T01:03:34.663Z,98192.86
2019-05-01T01:06:07.004Z,98193.12
2019-05-01T01:08:38.977Z,98189.98
2019-05-01T01:11:10.959Z,98183.25
2019-05-01T01:13:42.935Z,98182.86
2019-05-01T01:16:14.885Z,98184.37
2019-05-01T01:18:46.864Z,98180.05
2019-05-01T01:21:18.786Z,98175.14
2019-05-01T01:23:50.737Z,98177.52
2019-05-01T01:26:22.679Z,98176.02
2019-05-01T01:28:54.663Z,98177.53
2019-05-01T01:31:26.705Z,98169.30
2019-05-01T01:33:58.682Z,98169.69
2019-05-01T01:36:30.632Z,98170.56
2019-05-01T01:39:03.956Z,98171.69
2019-05-01T01:41:36.051Z,98173.36
2019-05-01T01:44:30.563Z,98169.17
2019-05-01T01:47:02.597Z,98170.20
2019-05-01T01:49:34.562Z,98160.34
2019-05-01T01:52:06.547Z,98162.39
2019-05-01T01:54:38.581Z,98164.64
2019-05-01T01:57:10.592Z,98158.06
2019-05-01T01:59:43.032Z,98156.80
2019-05-01T02:02:37.082Z,98154.01
2019-05-01T02:05:14.789Z,98157.92
2019-05-01T02:07:46.736Z,98147.13
2019-05-01T02:10:18.864Z,98151.47
2019-05-01T02:12:50.770Z,98152.73
2019-05-01T02:15:22.786Z,98157.04
2019-05-01T02:17:54.700Z,98148.20
2019-05-01T02:20:26.659Z,98154.89
2019-05-01T02:22:58.621Z,98149.19
2019-05-01T02:25:32.330Z,98149.58
2019-05-01T02:28:32.700Z,98149.47
2019-05-01T02:31:27.414Z,98143.13
2019-05-01T02:33:47.633Z,98142.11
2019-05-01T02:36:20.843Z,98149.86
2019-05-01T02:38:54.347Z,98143.52
2019-05-01T02:41:31.244Z,98138.98
2019-05-01T02:44:11.669Z,98138.06
2019-05-01T02:46:46.039Z,98142.36
2019-05-01T02:49:24.789Z,98141.62
2019-05-01T02:51:57.052Z,98141.15
2019-05-01T02:54:28.992Z,98140.12
2019-05-01T02:57:12.362Z,98148.23
2019-05-01T02:59:46.309Z,98146.72
2019-05-01T03:02:18.731Z,98146.81
2019-05-01T03:04:51.714Z,98147.48
2019-05-01T03:07:25.388Z,98138.98
2019-05-01T03:09:57.333Z,98141.63
2019-05-01T03:12:30.206Z,98138.73
2019-05-01T03:15:04.655Z,98132.89
2019-05-01T03:17:47.479Z,98132.53
2019-05-01T03:20:39.327Z,98138.61
2019-05-01T03:23:18.982Z,98132.64
2019-05-01T03:25:50.952Z,98135.41
2019-05-01T03:28:23.322Z,98133.77
2019-05-01T03:30:55.477Z,98134.03
2019-05-01T03:33:27.427Z,98130.10
2019-05-01T03:35:59.956Z,98135.31
2019-05-01T03:38:32.308Z,98131.52
2019-05-01T03:41:04.654Z,98137.22
2019-05-01T03:43:36.725Z,98129.38
2019-05-01T03:46:08.905Z,98135.05
2019-05-01T03:48:41.858Z,98130.50
2019-05-01T03:51:13.787Z,98130.00
2019-05-01T03:53:45.732Z,98127.72
2019-05-01T03:56:17.964Z,98132.14
2019-05-01T03:58:50.106Z,98132.26
2019-05-01T04:01:54.086Z,98132.28
2019-05-01T04:04:28.162Z,98122.14
2019-05-01T04:07:00.099Z,98126.20
2019-05-01T04:09:32.149Z,98130.23
2019-05-01T04:12:04.625Z,98124.67
2019-05-01T04:14:39.100Z,98129.98
2019-05-01T04:17:26.406Z,98135.82
2019-05-01T04:19:58.380Z,98130.77
2019-05-01T04:22:30.354Z,98132.01
2019-05-01T04:25:02.316Z,98131.88
2019-05-01T04:27:36.967Z,98133.14
2019-05-01T04:30:31.289Z,98127.58
2019-05-01T04:33:06.702Z,98133.13
2019-05-01T04:35:56.303Z,98130.61
2019-05-01T04:38:28.271Z,98129.98
2019-05-01T04:41:00.231Z,98132.13
2019-05-01T04:43:32.386Z,98128.84
2019-05-01T04:46:04.372Z,98128.34
2019-05-01T04:48:36.454Z,98135.68
2019-05-01T04:51:08.734Z,98138.23
2019-05-01T04:53:41.210Z,98140.64
2019-05-01T04:56:13.176Z,98143.42
2019-05-01T04:58:45.410Z,98141.65
2019-05-01T05:01:17.402Z,98143.55
2019-05-01T05:03:49.344Z,98141.78
2019-05-01T05:06:21.306Z,98147.72
2019-05-01T05:08:53.227Z,98150.39
2019-05-01T05:11:27.183Z,98147.97
2019-05-01T05:14:09.105Z,98151.77
2019-05-01T05:17:03.638Z,98150.51
2019-05-01T05:19:35.683Z,98153.17
2019-05-01T05:22:07.634Z,98146.88
2019-05-01T05:24:39.869Z,98149.09
2019-05-01T05:27:12.491Z,98147.88
2019-05-01T05:29:44.785Z,98145.69
2019-05-01T05:32:18.576Z,98147.20
2019-05-01T05:34:52.628Z,98152.02
2019-05-01T05:37:29.235Z,98153.68
2019-05-01T05:40:01.303Z,98144.03
2019-05-01T05:42:33.620Z,98143.89
2019-05-01T05:45:06.150Z,98142.13
2019-05-01T05:47:38.216Z,98145.79
2019-05-01T05:50:12.053Z,98152.48
2019-05-01T05:52:50.872Z,98149.05
2019-05-01T05:55:35.654Z,98151.88
2019-05-01T05:58:26.312Z,98152.38
2019-05-01T06:01:07.494Z,98145.41
2019-05-01T06:03:57.907Z,98141.75
2019-05-01T06:06:50.796Z,98139.75
2019-05-01T06:09:32.852Z,98130.59
2019-05-01T06:12:32.467Z,98139.59
2019-05-01T06:15:30.631Z,98130.15
2019-05-01T06:18:34.717Z,98136.70
2019-05-01T06:21:16.134Z,98129.60
2019-05-01T06:23:57.735Z,98125.78
2019-05-01T06:26:37.425Z,98129.06
2019-05-01T06:29:05.842Z,98126.45
2019-05-01T06:31:38.122Z,98119.30
2019-05-01T06:34:10.082Z,98129.08
2019-05-01T06:36:44.127Z,98123.23
2019-05-01T06:39:15.909Z,98127.05
2019-05-01T06:41:47.882Z,98121.88
2019-05-01T06:44:44.221Z,98126.96
2019-05-01T06:47:30.459Z,98122.08
2019-05-01T06:50:10.373Z,98115.77
2019-05-01T06:52:42.343Z,98116.94
2019-05-01T06:55:14.416Z,98111.89
2019-05-01T06:57:46.647Z,98113.84
2019-05-01T07:00:18.941Z,98117.56
2019-05-01T07:02:51.953Z,98113.16
2019-05-01T07:05:24.039Z,98107.62
2019-05-01T07:07:56.015Z,98111.00
2019-05-01T07:10:31.748Z,98109.35
2019-05-01T07:13:04.987Z,98113.16
2019-05-01T07:15:37.444Z,98108.41
2019-05-01T07:18:11.462Z,98105.43
2019-05-01T07:20:51.290Z,98111.21
2019-05-01T07:23:21.764Z,98110.83
2019-05-01T07:25:53.837Z,98109.24
2019-05-01T07:28:28.911Z,98103.88
2019-05-01T07:31:05.281Z,98102.58
2019-05-01T07:33:37.498Z,98098.03
2019-05-01T07:36:15.446Z,98102.59
2019-05-01T07:38:44.429Z,98101.56
2019-05-01T07:41:16.439Z,98100.80
2019-05-01T07:44:14.036Z,98102.48
2019-05-01T07:47:05.606Z,98098.57
2019-05-01T07:49:56.676Z,98098.32
2019-05-01T07:52:28.673Z,98097.79
2019-05-01T07:55:00.647Z,98095.58
2019-05-01T07:57:34.139Z,98093.26
2019-05-01T08:00:12.637Z,98092.64
2019-05-01T08:02:44.653Z,98093.19
2019-05-01T08:05:16.590Z,98097.70
2019-05-01T08:07:48.544Z,98098.38
2019-05-01T08:10:21.059Z,98089.72
2019-05-01T08:12:55.387Z,98093.75
2019-05-01T08:15:32.392Z,98095.50
2019-05-01T08:18:27.927Z,98093.59
2019-05-01T08:21:26.038Z,98088.56
2019-05-01T08:23:58.705Z,98085.56
2019-05-01T08:26:30.673Z,98087.13
2019-05-01T08:29:42.035Z,98092.05
2019-05-01T08:32:24.790Z,98085.03
2019-05-01T08:35:02.163Z,98086.70
2019-05-01T08:37:34.250Z,98081.63
2019-05-01T08:40:06.449Z,98080.76
2019-05-01T08:42:42.573Z,98081.50
2019-05-01T08:45:47.004Z,98080.73
2019-05-01T08:48:41.909Z,98084.17
2019-05-01T08:51:13.884Z,98075.16
2019-05-01T08:53:45.854Z,98075.06
2019-05-01T08:56:21.983Z,98073.75
2019-05-01T08:58:51.758Z,98075.50
2019-05-01T09:01:23.725Z,98076.00
2019-05-01T09:03:55.845Z,98078.46
2019-05-01T09:06:34.443Z,98071.28
2019-05-01T09:09:02.972Z,98068.56
2019-05-01T09:11:36.218Z,98064.37
2019-05-01T09:14:09.233Z,98066.62
2019-05-01T09:16:41.249Z,98062.38
2019-05-01T09:19:13.275Z,98062.09
2019-05-01T09:21:45.252Z,98062.59
2019-05-01T09:24:17.242Z,98058.24
2019-05-01T09:27:03.702Z,98060.51
2019-05-01T09:29:42.244Z,98058.36
2019-05-01T09:32:14.218Z,98057.86
2019-05-01T09:34:46.256Z,98044.39
2019-05-01T09:37:18.232Z,98055.70
2019-05-01T09:39:50.197Z,98045.53
2019-05-01T09:42:23.687Z,98040.05
2019-05-01T09:44:56.318Z,98044.72
2019-05-01T09:47:28.281Z,98034.87
2019-05-01T09:50:00.274Z,98036.05
2019-05-01T09:52:43.121Z,98034.27
2019-05-01T09:55:23.203Z,98029.00
2019-05-01T09:57:52.609Z,98030.02
2019-05-01T10:00:28.623Z,98025.27
2019-05-01T10:03:00.641Z,98025.70
2019-05-01T10:05:32.629Z,98019.63
2019-05-01T10:08:05.502Z,98024.15
2019-05-01T10:10:37.609Z,98025.39
2019-05-01T10:13:09.676Z,98020.91
2019-05-01T10:15:41.708Z,98016.41
2019-05-01T10:18:13.791Z,98010.27
2019-05-01T10:20:45.745Z,98010.58
2019-05-01T10:23:17.680Z,98005.58
2019-05-01T10:25:53.039Z,98003.09
2019-05-01T10:28:49.961Z,98004.17
2019-05-01T10:31:42.850Z,98005.42
2019-05-01T10:34:23.379Z,98005.33
2019-05-01T10:36:55.856Z,97999.84
2019-05-01T10:39:30.190Z,97991.02
2019-05-01T10:42:02.003Z,97991.46
2019-05-01T10:44:33.941Z,97991.28
2019-05-01T10:47:05.939Z,97989.06
2019-05-01T10:49:37.919Z,97985.88
2019-05-01T10:52:14.289Z,97985.92
2019-05-01T10:54:46.412Z,97982.31
2019-05-01T10:57:17.621Z,97976.84
2019-05-01T10:59:49.550Z,97976.13
2019-05-01T11:02:21.561Z,97973.53
2019-05-01T11:04:53.536Z,97973.37
2019-05-01T11:07:25.535Z,97972.28
2019-05-01T11:09:57.473Z,97971.22
2019-05-01T11:12:29.435Z,97970.48
2019-05-01T11:15:01.394Z,97969.86
2019-05-01T11:17:33.392Z,97965.76
2019-05-01T11:20:05.811Z,97965.52
2019-05-01T11:22:37.807Z,97963.45
2019-05-01T11:25:10.189Z,97959.67
2019-05-01T11:27:42.172Z,97953.29
2019-05-01T11:30:14.407Z,97951.89
2019-05-01T11:33:01.827Z,97957.67
2019-05-01T11:36:09.760Z,97950.39
2019-05-01T11:38:45.954Z,97948.13
2019-05-01T11:41:22.020Z,97950.41
2019-05-01T11:43:53.962Z,97947.45
2019-05-01T11:46:26.378Z,97946.16
2019-05-01T11:48:58.465Z,97946.45
2019-05-01T11:51:30.445Z,97942.75
2019-05-01T11:54:02.545Z,97944.97
2019-05-01T11:56:34.507Z,97933.23
2019-05-01T11:59:06.490Z,97937.32
2019-05-01T12:01:38.492Z,97938.74
2019-05-01T12:04:10.456Z,97929.16
2019-05-01T12:06:42.384Z,97924.61
2019-05-01T12:09:14.394Z,97926.03
2019-05-01T12:11:48.273Z,97925.39
2019-05-01T12:14:20.291Z,97917.63
2019-05-01T12:17:14.643Z,97924.91
2019-05-01T12:19:46.776Z,97922.14
2019-05-01T12:22:18.751Z,97916.86
2019-05-01T12:24:50.758Z,97913.86
2019-05-01T12:27:22.767Z,97910.33
2019-05-01T12:29:54.749Z,97913.28
2019-05-01T12:32:26.776Z,97914.24
2019-05-01T12:34:58.786Z,97906.80
2019-05-01T12:37:35.755Z,97906.02
2019-05-01T12:40:09.022Z,97902.17
2019-05-01T12:42:41.086Z,97905.37
2019-05-01T12:45:14.044Z,97898.22
2019-05-01T12:47:51.089Z,97894.41
2019-05-01T12:50:23.100Z,97890.58
2019-05-01T12:53:23.586Z,97893.06
2019-05-01T12:56:15.191Z,97882.48
2019-05-01T12:58:49.287Z,97883.91
2019-05-01T13:01:21.290Z,97877.07
2019-05-01T13:03:53.293Z,97872.84
2019-05-01T13:06:25.283Z,97872.53
2019-05-01T13:08:57.264Z,97869.09
2019-05-01T13:11:29.454Z,97865.22
2019-05-01T13:14:01.442Z,97862.28
2019-05-01T13:16:33.481Z,97859.13
2019-05-01T13:19:05.465Z,97848.39
2019-05-01T13:21:37.443Z,97856.05
2019-05-01T13:24:09.413Z,97847.80
2019-05-01T13:26:53.878Z,97843.26
2019-05-01T13:29:48.458Z,97846.16
2019-05-01T13:32:55.064Z,97841.28
2019-05-01T13:35:27.022Z,97843.72
2019-05-01T13:37:59.017Z,97835.83
2019-05-01T13:40:31.177Z,97842.04
2019-05-01T13:43:03.181Z,97834.33
2019-05-01T13:45:35.243Z,97834.27
2019-05-01T13:48:07.319Z,97820.14
2019-05-01T13:50:39.250Z,97822.81
2019-05-01T13:53:11.327Z,97816.07
2019-05-01T13:55:43.281Z,97810.20
2019-05-01T13:58:15.336Z,97810.20
2019-05-01T14:00:47.296Z,97808.79
2019-05-01T14:03:19.327Z,97800.81
2019-05-01T14:05:51.346Z,97800.41
2019-05-01T14:08:23.355Z,97797.43
2019-05-01T14:10:55.338Z,97788.80
2019-05-01T14:13:27.344Z,97788.48
2019-05-01T14:15:59.333Z,97786.33
2019-05-01T14:18:31.301Z,97788.48
2019-05-01T14:21:37.398Z,97785.45
2019-05-01T14:24:28.448Z,97785.61
2019-05-01T14:27:00.438Z,97785.94
2019-05-01T14:29:32.410Z,97770.73
2019-05-01T14:32:04.383Z,97780.42
2019-05-01T14:34:36.383Z,97779.34
2019-05-01T14:37:08.400Z,97777.66
2019-05-01T14:39:40.378Z,97777.61
2019-05-01T14:42:12.354Z,97775.75
2019-05-01T14:44:44.327Z,97776.95
2019-05-01T14:47:16.427Z,97773.98
2019-05-01T14:49:48.485Z,97765.22
2019-05-01T14:52:20.427Z,97765.44
2019-05-01T14:54:52.401Z,97762.97
2019-05-01T14:57:24.361Z,97765.16
2019-05-01T14:59:56.355Z,97761.16
2019-05-01T15:02:28.368Z,97759.52
2019-05-01T15:05:00.366Z,97755.86
2019-05-01T15:07:42.775Z,97749.05
2019-05-01T15:10:06.335Z,97755.61
2019-05-01T15:12:39.497Z,97757.30
2019-05-01T15:15:32.381Z,97747.55
2019-05-01T15:18:10.411Z,97743.17
2019-05-01T15:20:42.466Z,97749.02
2019-05-01T15:23:14.412Z,97745.56
2019-05-01T15:25:46.408Z,97745.89
2019-05-01T15:28:18.406Z,97744.05
2019-05-01T15:30:51.118Z,97737.63
2019-05-01T15:33:23.072Z,97742.44
2019-05-01T15:35:55.084Z,97732.78
2019-05-01T15:38:27.091Z,97737.73
2019-05-01T15:41:08.393Z,97732.58
2019-05-01T15:43:50.933Z,97729.84
2019-05-01T15:46:22.948Z,97728.89
2019-05-01T15:48:54.916Z,97723.98
2019-05-01T15:51:26.949Z,97720.25
2019-05-01T15:53:58.915Z,97719.14
2019-05-01T15:56:30.908Z,97718.85
2019-05-01T15:59:02.864Z,97722.58
2019-05-01T16:01:34.856Z,97714.42
2019-05-01T16:04:06.830Z,97716.58
2019-05-01T16:06:38.805Z,97713.61
2019-05-01T16:09:10.901Z,97716.28
2019-05-01T16:12:11.742Z,97716.17
2019-05-01T16:14:48.579Z,97717.68
2019-05-01T16:17:20.597Z,97707.83
2019-05-01T16:19:52.621Z,97708.92
2019-05-01T16:22:24.641Z,97707.91
2019-05-01T16:24:56.634Z,97712.08
2019-05-01T16:27:28.649Z,97710.50
2019-05-01T16:30:00.623Z,97707.17
2019-05-01T16:32:32.690Z,97699.61
2019-05-01T16:35:04.818Z,97702.56
2019-05-01T16:37:36.905Z,97698.03
2019-05-01T16:40:21.658Z,97697.66
2019-05-01T16:42:53.696Z,97694.02
2019-05-01T16:45:25.703Z,97695.26
2019-05-01T16:47:57.824Z,97692.87
2019-05-01T16:50:29.765Z,97685.16
2019-05-01T16:53:01.841Z,97694.97
2019-05-01T16:55:33.848Z,97692.27
2019-05-01T16:58:07.877Z,97691.83
2019-05-01T17:00:57.278Z,97686.09
2019-05-01T17:03:48.927Z,97683.33
2019-05-01T17:06:49.451Z,97683.20
2019-05-01T17:09:36.628Z,97676.50
2019-05-01T17:12:10.916Z,97682.84
2019-05-01T17:14:42.570Z,97684.44
2019-05-01T17:17:18.060Z,97687.70
2019-05-01T17:19:50.122Z,97681.05
2019-05-01T17:22:22.105Z,97680.91
2019-05-01T17:24:54.145Z,97679.03
2019-05-01T17:27:26.133Z,97677.55
2019-05-01T17:29:58.197Z,97684.37
2019-05-01T17:32:31.009Z,97682.95
2019-05-01T17:35:06.628Z,97681.96
2019-05-01T17:37:37.324Z,97679.78
2019-05-01T17:40:09.705Z,97683.11
2019-05-01T17:42:41.743Z,97682.09
2019-05-01T17:45:13.897Z,97677.22
2019-05-01T17:47:45.892Z,97686.61
2019-05-01T17:50:21.167Z,97677.36
2019-05-01T17:52:51.899Z,97681.03
2019-05-01T17:55:24.001Z,97682.11
2019-05-01T17:57:56.032Z,97677.94
2019-05-01T18:00:47.656Z,97684.59
2019-05-01T18:03:38.216Z,97686.53
2019-05-01T18:06:27.974Z,97684.46
2019-05-01T18:09:03.105Z,97684.87
2019-05-01T18:11:33.944Z,97678.50
2019-05-01T18:14:06.098Z,97683.31
2019-05-01T18:16:38.129Z,97685.59
2019-05-01T18:19:10.362Z,97690.43
2019-05-01T18:21:46.861Z,97693.97
2019-05-01T18:24:44.789Z,97691.05
2019-05-01T18:27:35.071Z,97694.56
2019-05-01T18:30:09.532Z,97692.89
2019-05-01T18:32:47.487Z,97695.54
2019-05-01T18:35:16.261Z,97700.75
2019-05-01T18:38:06.475Z,97698.61
2019-05-01T18:40:45.799Z,97699.33
2019-05-01T18:43:17.916Z,97697.63
2019-05-01T18:45:54.538Z,97696.44
2019-05-01T18:48:26.608Z,97699.46
2019-05-01T18:50:58.675Z,97706.03
2019-05-01T18:53:30.810Z,97706.62
2019-05-01T18:56:05.628Z,97702.66
2019-05-01T18:58:36.963Z,97706.53
2019-05-01T19:01:10.738Z,97715.31
2019-05-01T19:03:44.196Z,97715.55
2019-05-01T19:06:16.505Z,97712.80
2019-05-01T19:08:48.592Z,97713.59
2019-05-01T19:11:20.857Z,97717.34
2019-05-01T19:13:52.912Z,97718.80
2019-05-01T19:16:25.058Z,97716.91
2019-05-01T19:18:57.212Z,97718.56
2019-05-01T19:21:29.820Z,97725.58
2019-05-01T19:24:02.786Z,97729.94
2019-05-01T19:26:38.205Z,97729.48
2019-05-01T19:29:09.821Z,97725.58
2019-05-01T19:31:42.015Z,97725.78
2019-05-01T19:34:14.177Z,97729.45
2019-05-01T19:36:46.426Z,97727.88
2019-05-01T19:39:18.545Z,97725.67
2019-05-01T19:41:51.400Z,97728.98
2019-05-01T19:44:24.676Z,97734.78
2019-05-01T19:46:56.740Z,97740.75
2019-05-01T19:49:29.795Z,97729.84
2019-05-01T19:52:02.933Z,97731.50
2019-05-01T19:54:35.036Z,97739.15
2019-05-01T19:57:07.023Z,97732.47
2019-05-01T19:59:39.154Z,97741.50
2019-05-01T20:02:12.471Z,97744.24
2019-05-01T20:04:45.274Z,97739.48
2019-05-01T20:07:21.432Z,97740.25
2019-05-01T20:09:57.082Z,97736.70
2019-05-01T20:12:29.550Z,97739.53
2019-05-01T20:15:00.621Z,97746.53
2019-05-01T20:17:32.653Z,97737.00
2019-05-01T20:20:04.845Z,97738.02
2019-05-01T20:22:36.951Z,97739.02
2019-05-01T20:25:08.987Z,97747.60
2019-05-01T20:27:42.834Z,97739.22
2019-05-01T20:30:15.190Z,97733.33
2019-05-01T20:32:47.190Z,97736.16
2019-05-01T20:35:19.259Z,97734.48
2019-05-01T20:37:51.277Z,97731.53
2019-05-01T20:40:23.358Z,97728.34
2019-05-01T20:42:55.393Z,97730.37
2019-05-01T20:45:27.479Z,97734.20
2019-05-01T20:47:59.483Z,97724.28
2019-05-01T20:50:31.583Z,97729.38
2019-05-01T20:53:03.850Z,97731.57
2019-05-01T20:55:35.871Z,97723.34
2019-05-01T20:58:21.079Z,97725.45
2019-05-01T21:00:57.708Z,97724.42
2019-05-01T21:03:30.465Z,97725.23
2019-05-01T21:06:23.753Z,97728.74
2019-05-01T21:09:08.331Z,97726.50
2019-05-01T21:11:47.259Z,97723.92
2019-05-01T21:14:22.616Z,97723.92
2019-05-01T21:16:51.032Z,97718.49
2019-05-01T21:19:23.839Z,97725.45
2019-05-01T21:21:56.966Z,97726.89
2019-05-01T21:24:28.960Z,97725.70
2019-05-01T21:27:00.938Z,97723.61
2019-05-01T21:29:34.308Z,97722.06
2019-05-01T21:32:06.452Z,97721.13
2019-05-01T21:34:38.470Z,97718.23
2019-05-01T21:37:10.465Z,97718.47
2019-05-01T21:39:43.642Z,97716.41
2019-05-01T21:42:16.415Z,97717.09
2019-05-01T21:44:48.350Z,97709.89
2019-05-01T21:47:20.370Z,97713.56
2019-05-01T21:49:52.975Z,97712.39
2019-05-01T21:52:26.801Z,97707.81
2019-05-01T21:54:58.993Z,97710.61
2019-05-01T21:57:33.143Z,97708.73
2019-05-01T22:00:05.688Z,97703.46
2019-05-01T22:02:41.650Z,97710.22
2019-05-01T22:05:12.184Z,97704.13
2019-05-01T22:07:44.172Z,97706.66
2019-05-01T22:10:16.174Z,97706.16
2019-05-01T22:12:50.806Z,97706.47
2019-05-01T22:15:29.400Z,97704.78
2019-05-01T22:18:19.634Z,97702.53
2019-05-01T22:21:04.377Z,97702.97
2019-05-01T22:23:55.990Z,97699.91
2019-05-01T22:26:29.778Z,97700.31
2019-05-01T22:29:03.666Z,97694.53
2019-05-01T22:31:57.472Z,97695.47
2019-05-01T22:34:41.600Z,97692.17
2019-05-01T22:37:13.576Z,97699.56
2019-05-01T22:39:49.343Z,97698.34
2019-05-01T22:42:21.355Z,97698.27
2019-05-01T22:44:53.366Z,97700.10
2019-05-01T22:47:25.388Z,97692.45
2019-05-01T22:49:57.375Z,97694.13
2019-05-01T22:52:29.365Z,97699.35
2019-05-01T22:55:01.342Z,97696.05
2019-05-01T22:57:33.430Z,97698.25
2019-05-01T23:00:06.470Z,97701.08
2019-05-01T23:02:40.091Z,97702.47
2019-05-01T23:05:12.287Z,97699.63
2019-05-01T23:07:44.277Z,97700.48
2019-05-01T23:10:16.252Z,97698.98
2019-05-01T23:12:48.208Z,97695.29
2019-05-01T23:15:22.856Z,97693.30
2019-05-01T23:17:54.797Z,97684.27
2019-05-01T23:20:26.862Z,97681.64
2019-05-01T23:22:58.797Z,97681.47
2019-05-01T23:25:30.794Z,97682.56
2019-05-01T23:28:04.173Z,97681.41
2019-05-01T23:30:36.697Z,97678.17
2019-05-01T23:33:08.662Z,97675.14
2019-05-01T23:35:40.651Z,97668.92
2019-05-01T23:38:12.631Z,97671.18
2019-05-01T23:40:46.201Z,97668.13
2019-05-01T23:43:18.614Z,97665.80
2019-05-01T23:45:50.622Z,97663.86
2019-05-01T23:48:22.621Z,97657.12
2019-05-01T23:50:54.600Z,97655.86
2019-05-01T23:53:26.665Z,97662.84
2019-05-01T23:56:00.070Z,97655.09
2019-05-01T23:58:32.501Z,97651.96
